Time;durP1;ratioP1;P1;durP2;ratioP2;P2;SDS_P1;SDS_P2;PMS_P1;PMS_P2;Temp;Humidity;BMP_temperature;BMP_pressure;BME280_temperature;BME280_humidity;BME280_pressure;Samples;Min_cycle;Max_cycle;Signal;HPM_P1;HPM_P2
2023/06/01 00:02:22;;;;;;;9.68;6.30;;;14.30;99.90;;;-144.05;63.23;56808.47;5091707;28;20030;-78
2023/06/01 00:04:49;;;;;;;11.50;5.53;;;14.30;99.90;;;-144.05;63.06;56831.84;5073019;28;20020;-80
2023/06/01 00:07:16;;;;;;;8.85;5.18;;;14.30;99.90;;;-144.05;62.70;56808.47;5091838;28;20059;-78
2023/06/01 00:09:42;;;;;;;12.15;5.60;;;14.30;99.90;;;-144.05;62.76;56840.34;5091549;28;20034;-80
2023/06/01 00:12:09;;;;;;;10.70;5.78;;;14.30;99.90;;;-144.05;62.89;56833.97;5091782;28;20024;-78
2023/06/01 00:14:35;;;;;;;14.00;6.43;;;14.20;99.90;;;-144.05;63.55;56789.38;5091685;28;20088;-79
2023/06/01 00:17:03;;;;;;;12.65;6.15;;;14.20;99.90;;;-144.05;63.34;56810.59;5073577;28;20024;-80
2023/06/01 00:19:29;;;;;;;14.80;6.93;;;14.00;99.90;;;-144.05;64.20;56829.72;5091542;28;20048;-79
2023/06/01 00:21:56;;;;;;;14.43;6.95;;;14.00;99.90;;;-144.05;64.08;56797.88;5091615;28;20164;-78
2023/06/01 00:24:23;;;;;;;12.05;6.25;;;14.00;99.90;;;-144.05;63.79;56799.97;5091729;28;20481;-80
2023/06/01 00:26:49;;;;;;;12.02;7.07;;;14.00;99.90;;;-144.05;64.06;56836.09;5091693;28;20028;-78
2023/06/01 00:29:15;;;;;;;18.95;7.72;;;14.00;99.90;;;-144.05;63.93;56812.72;5091305;28;20028;-79
2023/06/01 00:31:41;;;;;;;13.00;7.55;;;13.90;99.90;;;-144.05;63.97;56823.34;5091594;28;20539;-80
2023/06/01 00:34:07;;;;;;;14.30;7.57;;;13.80;99.90;;;-144.05;64.55;56848.84;5091461;28;20028;-78
2023/06/01 00:36:33;;;;;;;12.77;7.32;;;13.80;99.90;;;-144.05;64.36;56816.97;5091452;28;20051;-78
2023/06/01 00:39:02;;;;;;;14.57;8.00;;;13.80;99.90;;;-144.05;64.50;56831.84;5091272;28;20385;-79
2023/06/01 00:41:30;;;;;;;10.98;7.88;;;13.80;99.90;;;-144.05;64.42;56808.47;5091229;28;20393;-78
2023/06/01 00:43:56;;;;;;;11.95;7.63;;;13.70;99.90;;;-144.05;64.48;56829.72;5091084;28;20036;-79
2023/06/01 00:46:22;;;;;;;15.18;8.02;;;13.70;99.90;;;-144.05;65.16;56812.72;5072988;28;20050;-80
2023/06/01 00:48:48;;;;;;;18.65;8.68;;;13.60;99.90;;;-144.05;65.55;56814.84;5091081;28;20036;-79
2023/06/01 00:51:15;;;;;;;18.42;9.07;;;13.60;99.90;;;-144.05;65.62;56833.97;5091210;28;20031;-80
2023/06/01 00:53:41;;;;;;;14.80;7.80;;;13.50;99.90;;;-144.05;65.73;56810.59;5091127;28;20548;-79
2023/06/01 00:56:13;;;;;;;14.75;8.30;;;13.40;99.90;;;-144.05;65.82;56842.47;5091370;28;20060;-79
2023/06/01 00:58:41;;;;;;;15.55;8.25;;;13.40;99.90;;;-144.05;65.86;56819.09;5091177;28;20024;-80
2023/06/01 01:01:07;;;;;;;13.77;9.05;;;13.30;99.90;;;-144.05;66.05;56810.59;5091020;28;20031;-79
2023/06/01 01:03:38;;;;;;;15.98;9.57;;;13.30;99.90;;;-144.05;66.83;56825.47;5091062;28;20024;-80
2023/06/01 01:06:22;;;;;;;18.65;9.25;;;13.20;99.90;;;-144.05;67.28;56821.22;5091036;28;20028;-80
2023/06/01 01:09:22;;;;;;;18.35;8.52;;;13.20;99.90;;;-144.05;67.17;56829.72;5091294;28;20020;-79
2023/06/01 01:12:07;;;;;;;14.60;8.88;;;13.10;99.90;;;-144.05;68.02;56810.59;5091113;28;20043;-78
2023/06/01 01:15:12;;;;;;;13.60;8.35;;;13.10;99.90;;;-144.05;67.82;56821.22;5091128;28;20435;-79
2023/06/01 01:17:45;;;;;;;15.35;8.27;;;13.00;99.90;;;-144.05;67.94;56821.22;5094298;28;20020;-78
2023/06/01 01:20:28;;;;;;;15.65;8.88;;;12.90;99.90;;;-144.05;68.52;56799.97;5095260;28;20050;-78
2023/06/01 01:23:45;;;;;;;18.90;8.88;;;12.80;99.90;;;-144.05;68.92;56840.34;5094894;28;20032;-79
2023/06/01 01:26:56;;;;;;;17.20;8.25;;;12.80;99.90;;;-144.05;68.84;56785.13;5056073;28;20416;-80
2023/06/01 01:29:28;;;;;;;13.82;9.10;;;12.70;99.90;;;-144.05;69.79;56810.59;5094485;28;20404;-80
2023/06/01 01:31:56;;;;;;;19.67;9.38;;;12.60;99.90;;;-144.05;70.32;56804.22;5094685;28;20027;-80
2023/06/01 01:34:27;;;;;;;13.15;8.63;;;12.60;99.90;;;-144.05;70.25;56831.84;5076487;28;20066;-80
2023/06/01 01:36:53;;;;;;;14.88;8.77;;;12.60;99.90;;;-144.05;70.17;56810.59;5094641;28;20040;-79
2023/06/01 01:39:18;;;;;;;16.90;8.68;;;12.50;99.90;;;-144.05;70.36;56819.09;5094318;28;20032;-81
2023/06/01 01:41:44;;;;;;;20.25;10.48;;;12.50;99.90;;;-144.05;71.11;56825.47;5094187;28;20170;-79
2023/06/01 01:44:11;;;;;;;14.70;9.85;;;12.40;99.90;;;-144.05;70.98;56823.34;5094316;28;20394;-79
2023/06/01 01:47:09;;;;;;;14.98;8.70;;;12.40;99.90;;;-144.05;71.21;56827.59;5094396;28;20123;-79
2023/06/01 01:49:56;;;;;;;16.17;8.48;;;12.40;99.90;;;-144.05;71.74;56823.34;5094240;28;20024;-77
2023/06/01 01:52:38;;;;;;;16.38;8.98;;;12.40;99.90;;;-144.05;71.63;56827.59;5094299;28;20020;-79
2023/06/01 01:55:08;;;;;;;18.98;9.45;;;12.40;99.90;;;-144.05;72.61;56821.22;5094274;28;20103;-80
2023/06/01 01:57:36;;;;;;;17.95;8.68;;;12.30;99.90;;;-144.05;72.12;56821.22;5094336;28;20511;-79
2023/06/01 02:00:07;;;;;;;17.98;10.13;;;12.30;99.90;;;-144.05;72.49;56833.97;5093922;28;20500;-79
2023/06/01 02:02:33;;;;;;;19.45;10.65;;;12.30;99.90;;;-144.05;72.71;56810.59;5093737;28;20089;-80
2023/06/01 02:04:59;;;;;;;16.20;9.48;;;12.30;99.90;;;-144.05;72.67;56795.75;5075680;28;20028;-80
2023/06/01 02:07:25;;;;;;;18.13;9.57;;;12.20;99.90;;;-144.05;72.68;56827.59;5093915;28;20024;-79
2023/06/01 02:09:51;;;;;;;18.05;9.77;;;12.20;99.90;;;-144.05;73.00;56806.34;5093617;28;20111;-80
2023/06/01 02:12:17;;;;;;;18.88;9.82;;;12.10;99.90;;;-144.05;73.77;56838.22;5093764;28;20081;-78
2023/06/01 02:14:43;;;;;;;21.92;10.35;;;12.00;99.90;;;-144.05;73.91;56827.59;5093716;28;20035;-80
2023/06/01 02:17:09;;;;;;;19.67;10.82;;;12.00;99.90;;;-144.05;74.26;56829.72;5093587;28;20054;-78
2023/06/01 02:19:34;;;;;;;19.65;11.23;;;11.90;99.90;;;-144.05;74.44;56802.09;5075255;28;20080;-78
2023/06/01 02:22:00;;;;;;;21.50;11.23;;;11.90;99.90;;;-144.05;74.41;56833.97;5093503;28;20024;-77
2023/06/01 02:24:26;;;;;;;22.10;11.27;;;11.80;99.90;;;-144.05;74.51;56806.34;5093614;28;20024;-80
2023/06/01 02:26:53;;;;;;;19.90;11.05;;;11.80;99.90;;;-144.05;74.57;56823.34;5093087;28;20020;-78
2023/06/01 02:29:24;;;;;;;21.63;10.95;;;11.80;99.90;;;-144.05;74.72;56806.34;5093222;28;20465;-78
2023/06/01 02:31:52;;;;;;;20.63;12.18;;;11.80;99.90;;;-144.05;74.65;56827.59;5093380;28;20083;-78
2023/06/01 02:34:19;;;;;;;33.38;13.18;;;11.80;99.90;;;-144.05;74.76;56827.59;5075340;28;20055;-78
2023/06/01 02:36:45;;;;;;;20.35;11.63;;;11.80;99.90;;;-144.05;74.65;56810.59;5093496;28;20035;-78
2023/06/01 02:39:11;;;;;;;24.75;12.48;;;11.70;99.90;;;-144.05;74.30;56816.97;5093521;28;20024;-78
2023/06/01 02:41:36;;;;;;;23.13;12.93;;;11.70;99.90;;;-144.05;74.39;56812.72;5081045;28;20020;-80
2023/06/01 02:44:02;;;;;;;26.30;13.70;;;11.70;99.90;;;-144.05;74.12;56827.59;5095879;28;20042;-79
2023/06/01 02:46:28;;;;;;;28.17;14.70;;;11.70;99.90;;;-144.05;74.56;56810.59;5114722;28;20039;-81
2023/06/01 02:48:55;;;;;;;34.85;18.00;;;11.70;99.90;;;-144.05;74.37;56814.84;5093446;28;20395;-77
2023/06/01 02:51:21;;;;;;;41.08;19.38;;;11.70;99.90;;;-144.05;74.31;56819.09;5075101;28;20031;-80
2023/06/01 02:53:47;;;;;;;45.08;21.70;;;11.70;99.90;;;-144.05;74.06;56827.59;5093081;28;20028;-77
2023/06/01 02:56:14;;;;;;;54.30;27.15;;;11.70;99.90;;;-144.05;74.02;56814.84;5092989;28;20111;-79
2023/06/01 02:58:41;;;;;;;49.15;26.45;;;11.70;99.90;;;-144.05;74.66;56814.84;5074483;28;20086;-80
2023/06/01 03:01:11;;;;;;;53.63;27.92;;;11.60;99.90;;;-144.05;74.38;56821.22;5092751;28;20117;-79
2023/06/01 03:03:38;;;;;;;56.00;30.20;;;11.50;99.90;;;-144.05;74.31;56812.72;5092633;28;20077;-79
2023/06/01 03:06:05;;;;;;;53.78;30.13;;;11.50;99.90;;;-144.05;74.24;56825.47;5092785;28;20541;-79
2023/06/01 03:08:32;;;;;;;55.05;29.23;;;11.50;99.90;;;-144.05;74.29;56821.22;5092795;28;20096;-79
2023/06/01 03:10:58;;;;;;;51.72;29.08;;;11.50;99.90;;;-144.05;74.58;56842.47;5074250;28;20104;-80
2023/06/01 03:13:24;;;;;;;58.92;31.15;;;11.50;99.90;;;-144.05;74.80;56819.09;5074378;28;20477;-79
2023/06/01 03:15:50;;;;;;;58.78;33.88;;;11.60;99.90;;;-144.05;74.46;56838.22;5074457;28;20036;-80
2023/06/01 03:18:16;;;;;;;66.00;34.65;;;11.50;99.90;;;-144.05;74.19;56836.09;5074390;28;20500;-80
2023/06/01 03:20:42;;;;;;;62.10;34.53;;;11.50;99.90;;;-144.05;74.44;56844.59;5092410;28;20063;-78
2023/06/01 03:23:08;;;;;;;56.47;30.38;;;11.50;99.90;;;-144.05;74.10;56814.84;5092476;28;20074;-79
2023/06/01 03:25:34;;;;;;;44.55;26.35;;;11.50;99.90;;;-144.05;74.41;56816.97;5092420;28;20036;-81
2023/06/01 03:28:00;;;;;;;47.53;27.92;;;11.40;99.90;;;-144.05;74.31;56827.59;5092249;28;20031;-79
2023/06/01 03:30:26;;;;;;;58.60;33.00;;;11.30;99.90;;;-144.05;74.80;56816.97;5092209;28;20031;-79
2023/06/01 03:32:52;;;;;;;58.55;33.90;;;11.30;99.90;;;-144.05;75.30;56814.84;5092301;28;20032;-80
2023/06/01 03:35:18;;;;;;;64.50;34.92;;;11.20;99.90;;;-144.05;75.00;56840.34;5073892;28;20105;-79
2023/06/01 03:37:46;;;;;;;61.45;35.42;;;11.20;99.90;;;-144.05;75.20;56819.09;5092192;28;20048;-78
2023/06/01 03:40:12;;;;;;;49.70;29.58;;;11.20;99.90;;;-144.05;74.84;56831.84;5073291;28;20032;-79
2023/06/01 03:42:42;;;;;;;39.55;23.85;;;11.30;99.90;;;-144.05;74.52;56819.09;5073652;28;20032;-79
2023/06/01 03:45:10;;;;;;;46.28;24.13;;;11.30;99.90;;;-144.05;74.19;56793.63;5092187;28;20157;-78
2023/06/01 03:47:38;;;;;;;50.35;26.40;;;11.30;99.90;;;-144.05;74.08;56827.59;5092100;28;20127;-78
2023/06/01 03:50:08;;;;;;;44.90;25.38;;;11.30;99.90;;;-144.05;74.00;56827.59;5091791;28;20112;-79
2023/06/01 03:52:36;;;;;;;40.08;25.08;;;11.30;99.90;;;-144.05;73.93;56823.34;5091886;28;20039;-79
2023/06/01 03:55:08;;;;;;;40.78;24.42;;;11.30;99.90;;;-144.05;74.29;56825.47;5073752;28;20063;-79
2023/06/01 03:57:35;;;;;;;45.05;24.98;;;11.40;99.90;;;-144.05;73.78;56810.59;5073477;28;20172;-77
2023/06/01 04:00:18;;;;;;;46.65;27.80;;;11.40;99.90;;;-144.05;73.15;56840.34;5091883;28;20531;-79
2023/06/01 04:02:56;;;;;;;43.22;24.83;;;11.40;99.90;;;-144.05;72.69;56814.84;5092106;28;20028;-78
2023/06/01 04:05:25;;;;;;;39.95;22.85;;;11.40;99.90;;;-144.05;72.16;56823.34;5073484;28;20020;-78
2023/06/01 04:07:54;;;;;;;39.25;21.58;;;11.30;99.90;;;-144.05;72.31;56806.34;5093003;28;20024;-79
2023/06/01 04:10:21;;;;;;;39.90;22.77;;;11.20;99.90;;;-144.05;72.06;56848.84;5117195;22;20497;-83
2023/06/01 04:12:50;;;;;;;38.13;20.95;;;11.20;99.90;;;-144.05;71.94;56821.22;5096445;28;20062;-84
2023/06/01 04:15:20;;;;;;;36.17;20.98;;;11.20;99.90;;;-144.05;71.37;56823.34;5078014;28;20397;-85
2023/06/01 04:17:46;;;;;;;34.17;20.65;;;11.10;99.90;;;-144.05;70.96;56840.34;5076932;28;20055;-82
2023/06/01 04:20:17;;;;;;;41.38;20.70;;;11.10;99.90;;;-144.05;70.77;56829.72;5075996;28;20396;-83
2023/06/01 04:22:46;;;;;;;33.03;20.25;;;11.10;99.90;;;-144.05;70.54;56819.09;5076439;28;20155;-83
2023/06/01 04:25:18;;;;;;;38.15;21.05;;;11.10;99.90;;;-144.05;70.58;56833.97;5093689;28;20034;-83
2023/06/01 04:27:51;;;;;;;28.45;18.95;;;11.10;99.90;;;-144.05;70.43;56844.59;5076514;28;20032;-83
2023/06/01 04:30:17;;;;;;;29.85;18.40;;;11.10;99.90;;;-144.05;70.55;56823.34;5075758;28;20035;-81
2023/06/01 04:32:45;;;;;;;33.45;20.33;;;11.20;99.90;;;-144.05;70.07;56814.84;5093077;28;20032;-82
2023/06/01 04:35:11;;;;;;;33.75;18.15;;;11.20;99.90;;;-144.05;70.07;56827.59;5093377;28;20048;-83
2023/06/01 04:37:40;;;;;;;34.00;18.58;;;11.30;99.90;;;-144.05;69.59;56831.84;5075308;28;20429;-83
2023/06/01 04:40:10;;;;;;;31.85;18.10;;;11.30;99.90;;;-144.05;69.27;56829.72;5092841;28;20096;-83
2023/06/01 04:42:48;;;;;;;30.65;16.55;;;11.30;99.90;;;-144.05;68.82;56819.09;5074693;28;20036;-84
2023/06/01 04:45:15;;;;;;;29.40;16.65;;;11.30;99.90;;;-144.05;68.59;56799.97;5092946;28;20254;-82
2023/06/01 04:47:44;;;;;;;31.17;19.63;;;11.30;99.90;;;-144.05;68.60;56810.59;5094685;28;20020;-83
2023/06/01 04:50:12;;;;;;;29.45;17.88;;;11.20;99.90;;;-144.05;68.99;56819.09;5075923;28;20024;-84
2023/06/01 04:52:41;;;;;;;37.05;19.70;;;11.20;99.90;;;-144.05;68.15;56833.97;5079311;28;20020;-84
2023/06/01 04:55:10;;;;;;;39.33;22.98;;;11.20;99.90;;;-144.05;68.00;56833.97;5080186;28;20036;-81
2023/06/01 04:57:38;;;;;;;30.70;19.50;;;11.30;99.90;;;-144.05;67.70;56808.47;5080719;28;20028;-84
2023/06/01 05:00:11;;;;;;;31.55;18.67;;;11.20;99.90;;;-144.05;67.96;56838.22;5097897;28;20034;-84
2023/06/01 05:02:46;;;;;;;37.08;19.70;;;11.00;99.90;;;-144.05;68.67;56831.84;5097574;28;20463;-81
2023/06/01 05:05:13;;;;;;;29.60;19.38;;;11.10;99.90;;;-144.05;68.35;56836.09;5080061;28;20431;-83
2023/06/01 05:07:43;;;;;;;39.75;21.23;;;11.00;99.90;;;-144.05;68.57;56853.09;5097590;28;20105;-82
2023/06/01 05:10:12;;;;;;;33.45;20.13;;;11.00;99.90;;;-144.05;68.64;56831.84;5079278;28;20388;-81
2023/06/01 05:12:38;;;;;;;37.35;21.77;;;11.00;99.90;;;-144.05;68.59;56814.84;5098054;28;20028;-83
2023/06/01 05:15:08;;;;;;;40.20;23.50;;;11.00;99.90;;;-144.05;67.93;56846.72;5098467;28;20508;-82
2023/06/01 05:17:34;;;;;;;39.80;23.02;;;11.00;99.90;;;-144.05;67.78;56836.09;5079048;28;20036;-82
2023/06/01 05:20:00;;;;;;;33.75;21.27;;;11.00;99.90;;;-144.05;67.82;56833.97;5096697;28;20378;-82
2023/06/01 05:22:26;;;;;;;36.17;19.83;;;11.00;99.90;;;-144.05;67.56;56825.47;5097101;28;20500;-83
2023/06/01 05:24:52;;;;;;;34.65;20.52;;;11.00;99.90;;;-144.05;66.90;56829.72;5096847;28;20046;-80
2023/06/01 05:27:18;;;;;;;38.40;21.08;;;11.10;99.90;;;-144.05;66.17;56836.09;5096696;28;20487;-81
2023/06/01 05:29:44;;;;;;;31.13;19.65;;;11.20;99.90;;;-144.05;66.09;56823.34;5096670;28;20032;-84
2023/06/01 05:32:10;;;;;;;31.70;20.05;;;11.20;99.90;;;-144.05;65.26;56823.34;5078689;28;20028;-80
2023/06/01 05:34:36;;;;;;;32.40;21.25;;;11.20;99.90;;;-144.05;65.51;56829.72;5096826;28;20031;-79
2023/06/01 05:37:02;;;;;;;40.28;23.88;;;11.20;99.90;;;-144.05;65.83;56821.22;5078492;28;20028;-82
2023/06/01 05:39:28;;;;;;;42.33;23.90;;;11.10;99.90;;;-144.05;66.44;56821.22;5096582;28;20134;-80
2023/06/01 05:41:57;;;;;;;49.55;24.95;;;11.00;99.90;;;-144.05;66.49;56827.59;5096902;28;20397;-82
2023/06/01 05:44:24;;;;;;;46.60;26.33;;;11.00;99.90;;;-144.05;66.43;56853.09;5078304;28;20028;-83
2023/06/01 05:46:52;;;;;;;51.47;26.67;;;11.00;99.90;;;-144.05;65.60;56814.84;5096305;28;20020;-82
2023/06/01 05:49:19;;;;;;;43.13;25.13;;;11.10;99.90;;;-144.05;65.05;56836.09;5096245;28;20089;-82
2023/06/01 05:51:46;;;;;;;38.88;24.17;;;11.20;99.90;;;-144.05;64.70;56823.34;5096058;28;20032;-83
2023/06/01 05:54:12;;;;;;;38.45;24.27;;;11.20;99.90;;;-144.05;64.41;56819.09;5096198;28;20157;-83
2023/06/01 05:56:40;;;;;;;56.33;31.25;;;11.30;99.90;;;-144.05;64.08;56825.47;5096461;28;20059;-84
2023/06/01 05:59:06;;;;;;;60.47;35.90;;;11.30;99.90;;;-144.05;63.82;56846.72;5077688;28;20032;-82
2023/06/01 06:01:32;;;;;;;61.25;37.10;;;11.40;99.90;;;-144.05;63.40;56833.97;5077641;28;20036;-83
2023/06/01 06:03:58;;;;;;;54.63;32.33;;;11.40;99.90;;;-144.05;63.22;56836.09;5095379;28;20055;-81
2023/06/01 06:06:26;;;;;;;53.17;30.30;;;11.40;99.90;;;-144.05;63.44;56823.34;5095575;28;20035;-82
2023/06/01 06:08:52;;;;;;;52.40;31.27;;;11.50;99.90;;;-144.05;62.97;56829.72;5077712;28;20028;-84
2023/06/01 06:11:19;;;;;;;47.75;28.98;;;11.60;99.90;;;-144.05;62.75;56853.09;5097418;28;20028;-83
2023/06/01 06:13:48;;;;;;;67.05;34.65;;;11.70;99.90;;;-144.05;61.97;56829.72;5098167;28;20035;-82
2023/06/01 06:16:14;;;;;;;57.28;33.63;;;11.80;99.90;;;-144.05;61.10;56816.97;5096783;28;20028;-84
2023/06/01 06:18:40;;;;;;;45.78;26.95;;;11.80;99.90;;;-144.05;60.92;56816.97;5078241;28;20105;-83
2023/06/01 06:21:06;;;;;;;43.88;26.92;;;11.90;99.90;;;-144.05;61.11;56814.84;5097367;28;20058;-85
2023/06/01 06:23:32;;;;;;;37.22;24.20;;;12.00;99.90;;;-144.05;60.85;56827.59;5097295;28;20060;-81
2023/06/01 06:25:58;;;;;;;46.83;26.55;;;12.20;99.90;;;-144.05;59.87;56808.47;5078961;28;20115;-84
2023/06/01 06:28:24;;;;;;;40.97;26.05;;;12.20;99.90;;;-144.05;59.47;56821.22;5079925;28;20035;-83
2023/06/01 06:30:50;;;;;;;34.45;24.30;;;12.30;99.90;;;-144.05;58.63;56842.47;5079677;28;20028;-83
2023/06/01 06:33:16;;;;;;;36.42;22.23;;;12.40;99.90;;;-144.05;58.27;56808.47;5079643;28;20028;-82
2023/06/01 06:35:42;;;;;;;44.42;27.17;;;12.50;99.90;;;-144.05;57.98;56812.72;5080317;28;20466;-83
2023/06/01 06:38:11;;;;;;;40.30;25.80;;;12.50;99.90;;;-144.05;57.61;56833.97;5097422;28;20059;-84
2023/06/01 06:40:37;;;;;;;41.05;26.83;;;12.60;99.90;;;-144.05;57.11;56827.59;5106857;28;20068;-81
2023/06/01 06:43:03;;;;;;;44.40;28.42;;;12.80;99.90;;;-144.05;57.33;56827.59;5097435;28;20032;-82
2023/06/01 06:45:28;;;;;;;57.33;33.53;;;12.80;99.90;;;-144.05;56.22;56827.59;5113916;28;20043;-81
2023/06/01 06:47:54;;;;;;;51.28;31.17;;;12.80;99.90;;;-144.05;56.56;56821.22;5113887;28;20035;-81
2023/06/01 06:50:20;;;;;;;58.55;35.60;;;12.80;99.90;;;-144.05;56.69;56838.22;5096080;28;20028;-82
2023/06/01 06:52:46;;;;;;;51.35;35.47;;;12.70;99.90;;;-144.05;56.18;56814.84;5109679;28;20032;-79
2023/06/01 06:55:12;;;;;;;53.85;31.48;;;12.80;99.90;;;-144.05;56.23;56823.34;5078770;28;20028;-81
2023/06/01 06:57:39;;;;;;;41.78;28.90;;;12.90;99.90;;;-144.05;55.59;56825.47;5077067;28;20024;-82
2023/06/01 07:00:14;;;;;;;47.08;28.65;;;13.00;99.90;;;-144.05;55.41;56821.22;5095322;28;20028;-81
2023/06/01 07:02:44;;;;;;;43.90;28.43;;;13.20;99.90;;;-144.05;54.49;56842.47;5077857;28;20090;-84
2023/06/01 07:05:11;;;;;;;37.17;24.02;;;13.20;99.90;;;-144.05;54.10;56844.59;5077371;28;20046;-82
2023/06/01 07:07:40;;;;;;;34.63;23.48;;;13.30;99.90;;;-144.05;54.06;56831.84;5095977;28;20028;-81
2023/06/01 07:10:07;;;;;;;46.47;30.83;;;13.30;99.90;;;-144.05;53.86;56816.97;5077413;28;20565;-82
2023/06/01 07:12:33;;;;;;;49.65;31.92;;;13.30;99.90;;;-144.05;53.25;56842.47;5094728;28;20103;-83
2023/06/01 07:15:00;;;;;;;48.08;31.48;;;13.50;99.90;;;-144.05;52.62;56823.34;5077316;28;20374;-80
2023/06/01 07:17:26;;;;;;;52.25;35.10;;;13.70;99.90;;;-144.05;52.36;56833.97;5094967;28;20115;-82
2023/06/01 07:19:52;;;;;;;49.95;34.13;;;13.80;99.90;;;-144.05;52.24;56819.09;5077507;28;20493;-84
2023/06/01 07:22:20;;;;;;;43.17;29.08;;;13.80;99.90;;;-144.05;52.16;56836.09;5078034;28;20058;-82
2023/06/01 07:24:46;;;;;;;42.95;27.08;;;13.90;99.90;;;-144.05;51.09;56816.97;5095301;28;20421;-83
2023/06/01 07:27:12;;;;;;;32.83;20.40;;;14.00;99.90;;;-144.05;50.63;56823.34;5078609;28;20020;-83
2023/06/01 07:29:38;;;;;;;28.75;18.27;;;13.90;99.90;;;-144.05;50.91;56831.84;5097016;28;20016;-85
2023/06/01 07:32:06;;;;;;;32.58;20.48;;;14.10;99.90;;;-144.05;50.45;56838.22;5079218;28;20047;-84
2023/06/01 07:34:33;;;;;;;33.17;21.52;;;14.00;99.90;;;-144.05;50.57;56836.09;5096813;28;20054;-81
2023/06/01 07:36:59;;;;;;;42.05;26.70;;;14.20;99.90;;;-144.05;50.42;56819.09;5095347;28;20032;-83
2023/06/01 07:39:28;;;;;;;41.05;27.45;;;14.20;99.90;;;-144.05;50.65;56823.34;5078119;28;20031;-83
2023/06/01 07:41:54;;;;;;;43.78;28.02;;;14.30;99.90;;;-144.05;50.32;56823.34;5095850;28;20024;-82
2023/06/01 07:44:20;;;;;;;38.92;26.35;;;14.50;99.90;;;-144.05;49.55;56831.84;5076963;28;20095;-82
2023/06/01 07:46:46;;;;;;;33.58;23.73;;;14.60;99.90;;;-144.05;49.09;56836.09;5094995;28;20095;-82
2023/06/01 07:49:16;;;;;;;33.38;22.80;;;14.70;99.90;;;-144.05;48.34;56846.72;5077097;28;20114;-82
2023/06/01 07:51:43;;;;;;;37.15;23.75;;;14.90;99.90;;;-144.05;48.18;56825.47;5077146;28;20028;-83
2023/06/01 07:54:09;;;;;;;37.72;24.67;;;15.10;99.90;;;-144.05;47.32;56833.97;5094630;28;20032;-82
2023/06/01 07:56:35;;;;;;;37.83;26.65;;;15.10;99.90;;;-144.05;47.42;56827.59;5076275;28;20046;-83
2023/06/01 07:59:02;;;;;;;31.70;21.15;;;15.30;99.90;;;-144.05;45.94;56823.34;5077059;28;20028;-82
2023/06/01 08:01:28;;;;;;;28.70;18.15;;;15.90;99.90;;;-144.05;44.06;56829.72;5076895;28;20051;-80
2023/06/01 08:03:56;;;;;;;26.80;17.98;;;16.80;99.90;;;-144.05;41.98;56827.59;5076819;28;20047;-81
2023/06/01 08:06:24;;;;;;;27.67;20.38;;;17.60;99.90;;;-144.05;39.01;56861.56;5095099;28;20610;-82
2023/06/01 08:08:52;;;;;;;26.98;19.60;;;18.20;99.90;;;-144.05;39.14;56848.84;5077072;28;20043;-82
2023/06/01 08:11:17;;;;;;;28.95;19.40;;;18.40;99.90;;;-144.05;39.25;56861.56;5075904;28;20028;-83
2023/06/01 08:13:48;;;;;;;27.42;19.02;;;17.70;99.90;;;-144.05;40.55;56846.72;5095276;28;20052;-83
2023/06/01 08:16:14;;;;;;;25.13;17.80;;;17.30;99.90;;;-144.05;39.31;56833.97;5074886;28;20115;-81
2023/06/01 08:18:40;;;;;;;32.88;22.98;;;17.60;99.90;;;-144.05;38.47;56850.97;5091980;28;20505;-82
2023/06/01 08:21:08;;;;;;;26.80;19.05;;;18.00;99.90;;;-144.05;37.86;56855.22;5092086;28;20122;-82
2023/06/01 08:23:35;;;;;;;24.23;16.70;;;18.40;99.90;;;-144.05;37.94;56848.84;5092078;28;20170;-81
2023/06/01 08:26:01;;;;;;;24.65;18.83;;;18.50;99.90;;;-144.05;37.42;56857.34;5093618;28;20028;-80
2023/06/01 08:28:27;;;;;;;18.75;14.15;;;18.80;99.90;;;-144.05;37.47;56846.72;5093498;28;20028;-82
2023/06/01 08:30:53;;;;;;;21.75;13.80;;;19.10;99.90;;;-144.05;35.82;56874.31;5092779;28;20059;-82
2023/06/01 08:33:19;;;;;;;18.88;14.48;;;19.10;99.90;;;-144.05;36.30;56863.69;5093433;28;20055;-80
2023/06/01 08:35:45;;;;;;;22.40;16.27;;;19.20;99.90;;;-144.05;35.75;56874.31;5092112;28;20485;-81
2023/06/01 08:38:11;;;;;;;22.38;16.25;;;19.20;99.90;;;-144.05;35.47;56893.44;5073716;28;20404;-81
2023/06/01 08:40:37;;;;;;;24.13;18.20;;;19.40;99.90;;;-144.05;36.16;56876.44;5091809;28;20063;-81
2023/06/01 08:43:22;;;;;;;26.45;17.90;;;19.40;99.90;;;-144.05;35.98;56848.84;5094846;28;20074;-84
2023/06/01 08:45:51;;;;;;;23.67;15.23;;;19.40;99.90;;;-144.05;35.94;56865.81;5079843;28;20074;-83
2023/06/01 08:48:19;;;;;;;26.95;20.98;;;19.50;99.90;;;-144.05;36.77;56878.56;5094818;28;20103;-84
2023/06/01 08:50:51;;;;;;;32.70;23.13;;;19.00;99.90;;;-144.05;37.16;56880.69;5095047;28;20100;-81
2023/06/01 08:53:21;;;;;;;29.25;21.27;;;18.80;99.90;;;-144.05;37.39;56859.47;5076684;28;20443;-83
2023/06/01 08:55:56;;;;;;;34.13;24.00;;;18.80;99.90;;;-144.05;35.64;56878.56;5076848;28;20080;-80
2023/06/01 08:58:23;;;;;;;29.63;22.98;;;19.00;99.90;;;-144.05;36.80;56865.81;5094614;28;20063;-83
2023/06/01 09:00:53;;;;;;;34.67;24.65;;;18.80;99.90;;;-144.05;36.51;56867.94;5075692;28;20263;-82
2023/06/01 09:03:19;;;;;;;34.55;24.30;;;19.10;99.90;;;-144.05;36.17;56874.31;5092944;28;20145;-83
2023/06/01 09:05:46;;;;;;;22.25;16.52;;;19.30;99.90;;;-144.05;36.68;56891.31;5092922;28;20488;-81
2023/06/01 09:08:13;;;;;;;24.10;14.20;;;19.50;99.90;;;-144.05;35.87;56910.44;5074413;28;20469;-82
2023/06/01 09:10:39;;;;;;;23.77;16.25;;;19.70;99.90;;;-144.05;36.55;56874.31;5074393;28;20473;-79
2023/06/01 09:13:05;;;;;;;24.13;15.40;;;19.70;99.90;;;-144.05;35.40;56887.06;5092703;28;20028;-82
2023/06/01 09:15:31;;;;;;;16.95;11.75;;;19.90;99.90;;;-144.05;35.88;56906.19;5092261;28;20035;-82
2023/06/01 09:18:13;;;;;;;21.13;12.68;;;20.10;99.90;;;-144.05;35.16;56901.94;5094127;28;20031;-81
2023/06/01 09:20:40;;;;;;;16.25;11.15;;;20.00;99.90;;;-144.05;35.99;56904.06;5093354;28;20024;-82
2023/06/01 09:23:06;;;;;;;20.70;12.20;;;20.70;99.90;;;-144.05;35.32;56882.81;5074391;28;20035;-82
2023/06/01 09:25:34;;;;;;;18.05;10.63;;;20.70;99.90;;;-144.05;35.02;56910.44;5074846;28;20027;-81
2023/06/01 09:28:02;;;;;;;18.40;12.45;;;20.60;99.90;;;-144.05;34.97;56908.31;5094487;28;20028;-81
2023/06/01 09:30:45;;;;;;;19.80;12.43;;;20.60;99.90;;;-144.05;35.01;56872.19;5093902;28;20485;-82
2023/06/01 09:33:20;;;;;;;15.80;10.63;;;20.30;99.90;;;-144.05;34.98;56891.31;5075874;28;20028;-81
2023/06/01 09:35:48;;;;;;;19.02;10.70;;;20.40;99.90;;;-144.05;35.36;56908.31;5093798;28;20082;-83
2023/06/01 09:38:25;;;;;;;17.58;10.80;;;20.60;99.90;;;-144.05;34.58;56918.94;5096428;28;20466;-82
2023/06/01 09:41:03;;;;;;;18.40;10.88;;;21.00;99.90;;;-144.05;33.76;56908.31;5078732;28;20066;-81
2023/06/01 09:43:30;;;;;;;19.67;11.55;;;20.80;98.70;;;-144.05;34.59;56878.56;5097385;28;20619;-81
2023/06/01 09:46:14;;;;;;;19.08;11.50;;;20.70;98.90;;;-144.05;34.91;56923.19;5098263;28;20027;-82
2023/06/01 09:48:42;;;;;;;21.05;10.75;;;20.90;99.90;;;-144.05;34.42;56925.28;5079317;28;20016;-81
2023/06/01 09:51:30;;;;;;;18.67;10.60;;;21.10;99.30;;;-144.05;33.14;56895.56;5097532;28;20043;-83
2023/06/01 09:53:56;;;;;;;17.45;10.27;;;21.10;96.70;;;-144.05;34.48;56895.56;5078972;28;20123;-82
2023/06/01 09:56:22;;;;;;;16.70;9.57;;;21.00;99.60;;;-144.05;34.15;56904.06;5099324;28;20059;-83
2023/06/01 09:58:58;;;;;;;15.45;8.50;;;21.30;99.20;;;-144.05;33.73;56914.69;5100074;28;20024;-82
2023/06/01 10:01:24;;;;;;;;;;;21.50;98.30;;;-144.05;33.30;56923.19;5101632;28;20036;-82
2023/06/01 10:03:53;;;;;;;13.65;9.02;;;21.80;97.10;;;-144.05;33.21;56946.53;5081744;28;20018;-84